createdAt,value
2019-03-26T00:00:03.163Z,34.73
2019-03-26T00:02:32.014Z,34.78
2019-03-26T00:05:00.932Z,34.70
2019-03-26T00:07:29.795Z,35.04
2019-03-26T00:09:59.493Z,35.89
2019-03-26T00:12:28.415Z,35.80
2019-03-26T00:14:57.283Z,35.99
2019-03-26T00:17:26.149Z,35.44
2019-03-26T00:19:55.071Z,35.34
2019-03-26T00:22:23.939Z,36.33
2019-03-26T00:24:52.807Z,38.71
2019-03-26T00:27:21.736Z,38.83
2019-03-26T00:29:50.590Z,38.45
2019-03-26T00:32:19.442Z,37.49
2019-03-26T00:34:48.378Z,37.63
2019-03-26T00:37:17.252Z,37.82
2019-03-26T00:39:46.119Z,38.75
2019-03-26T00:42:15.036Z,39.66
2019-03-26T00:44:43.879Z,39.75
2019-03-26T00:47:12.744Z,39.32
2019-03-26T00:49:41.668Z,37.62
2019-03-26T00:52:10.523Z,37.88
2019-03-26T00:54:39.380Z,38.00
2019-03-26T00:57:08.313Z,37.42
2019-03-26T00:59:37.169Z,36.69
2019-03-26T01:02:06.131Z,36.66
2019-03-26T01:04:35.154Z,37.41
2019-03-26T01:07:04.111Z,40.56
2019-03-26T01:09:32.969Z,40.13
2019-03-26T01:12:01.908Z,39.67
2019-03-26T01:14:30.761Z,39.98
2019-03-26T01:16:59.621Z,40.96
2019-03-26T01:19:28.547Z,40.04
2019-03-26T01:21:57.420Z,40.16
2019-03-26T01:24:26.281Z,40.17
2019-03-26T01:26:55.305Z,41.38
2019-03-26T01:29:24.168Z,42.10
2019-03-26T01:31:53.024Z,41.81
2019-03-26T01:34:21.940Z,41.81
2019-03-26T01:36:50.815Z,41.12
2019-03-26T01:39:19.692Z,40.90
2019-03-26T01:41:48.608Z,39.77
2019-03-26T01:44:17.460Z,39.24
2019-03-26T01:46:46.337Z,40.04
2019-03-26T01:49:15.247Z,39.00
2019-03-26T01:51:44.103Z,38.92
2019-03-26T01:54:13.067Z,38.83
2019-03-26T01:56:41.979Z,38.21
2019-03-26T01:59:10.838Z,38.78
2019-03-26T02:01:39.702Z,39.14
2019-03-26T02:04:08.617Z,38.77
2019-03-26T02:06:37.469Z,40.47
2019-03-26T02:09:06.931Z,40.69
2019-03-26T02:11:35.873Z,39.83
2019-03-26T02:14:04.580Z,39.83
2019-03-26T02:16:33.289Z,39.18
2019-03-26T02:19:01.980Z,39.75
2019-03-26T02:21:30.603Z,39.69
2019-03-26T02:23:59.230Z,40.97
2019-03-26T02:26:27.887Z,40.96
2019-03-26T02:28:56.516Z,40.40
2019-03-26T02:31:25.149Z,40.52
2019-03-26T02:33:53.819Z,39.86
2019-03-26T02:36:22.440Z,41.11
2019-03-26T02:38:51.055Z,41.41
2019-03-26T02:41:19.711Z,42.30
2019-03-26T02:43:48.346Z,41.75
2019-03-26T02:46:16.963Z,41.25
2019-03-26T02:48:45.630Z,41.95
2019-03-26T02:51:14.260Z,42.84
2019-03-26T02:53:42.894Z,44.45
2019-03-26T02:56:11.553Z,44.31
2019-03-26T02:58:40.179Z,43.88
2019-03-26T03:01:08.797Z,45.25
2019-03-26T03:03:37.470Z,44.54
2019-03-26T03:06:06.089Z,45.21
2019-03-26T03:08:34.721Z,45.31
2019-03-26T03:11:03.626Z,47.41
2019-03-26T03:13:32.252Z,47.41
2019-03-26T03:16:00.871Z,46.88
2019-03-26T03:18:29.529Z,46.29
2019-03-26T03:20:58.156Z,46.29
2019-03-26T03:23:26.775Z,47.43
2019-03-26T03:25:55.462Z,47.43
2019-03-26T03:28:24.088Z,47.98
2019-03-26T03:30:52.739Z,47.98
2019-03-26T03:33:21.377Z,48.35
2019-03-26T03:35:52.575Z,47.95
2019-03-26T03:38:20.345Z,47.95
2019-03-26T03:40:48.997Z,49.15
2019-03-26T03:43:17.640Z,47.74
2019-03-26T03:45:46.545Z,48.67
2019-03-26T03:48:15.199Z,48.96
2019-03-26T03:50:44.815Z,50.48
2019-03-26T03:53:16.748Z,49.95
2019-03-26T03:55:45.608Z,50.42
2019-03-26T03:58:16.129Z,50.44
2019-03-26T04:00:44.765Z,50.17
2019-03-26T04:03:13.525Z,50.99
2019-03-26T04:05:42.150Z,50.54
2019-03-26T04:08:10.763Z,50.54
2019-03-26T04:10:39.480Z,50.71
2019-03-26T04:13:08.321Z,49.22
2019-03-26T04:15:37.033Z,50.90
2019-03-26T04:18:05.684Z,49.33
2019-03-26T04:20:34.487Z,50.06
2019-03-26T04:23:03.100Z,50.22
2019-03-26T04:25:31.771Z,50.29
2019-03-26T04:28:00.400Z,50.83
2019-03-26T04:30:30.219Z,48.75
2019-03-26T04:32:58.876Z,49.50
2019-03-26T04:35:27.510Z,48.63
2019-03-26T04:37:56.225Z,48.97
2019-03-26T04:40:24.877Z,47.92
2019-03-26T04:42:53.496Z,49.91
2019-03-26T04:45:22.129Z,49.91
2019-03-26T04:47:50.791Z,49.64
2019-03-26T04:50:19.433Z,49.99
2019-03-26T04:52:48.050Z,48.08
2019-03-26T04:55:16.701Z,51.09
2019-03-26T04:57:45.329Z,52.00
2019-03-26T05:00:14.359Z,50.06
2019-03-26T05:02:43.030Z,51.71
2019-03-26T05:05:12.525Z,51.11
2019-03-26T05:07:41.271Z,49.93
2019-03-26T05:10:10.041Z,51.60
2019-03-26T05:12:38.671Z,51.31
2019-03-26T05:15:07.395Z,51.09
2019-03-26T05:17:36.061Z,50.14
2019-03-26T05:20:06.385Z,50.79
2019-03-26T05:22:35.207Z,51.52
2019-03-26T05:25:05.163Z,51.94
2019-03-26T05:27:44.801Z,52.35
2019-03-26T05:30:07.505Z,51.63
2019-03-26T05:32:36.216Z,52.92
2019-03-26T05:35:05.350Z,54.08
2019-03-26T05:37:33.969Z,52.47
2019-03-26T05:40:02.627Z,53.05
2019-03-26T05:42:31.249Z,51.38
2019-03-26T05:44:59.868Z,53.84
2019-03-26T05:47:28.533Z,53.77
2019-03-26T05:49:57.166Z,54.97
2019-03-26T05:52:25.789Z,53.05
2019-03-26T05:54:54.452Z,52.98
2019-03-26T05:57:23.076Z,52.39
2019-03-26T05:59:51.708Z,54.44
2019-03-26T06:02:20.389Z,54.44
2019-03-26T06:04:49.009Z,53.18
2019-03-26T06:07:17.628Z,52.84
2019-03-26T06:09:46.290Z,51.17
2019-03-26T06:12:14.906Z,50.55
2019-03-26T06:14:43.535Z,51.63
2019-03-26T06:17:12.200Z,52.67
2019-03-26T06:19:40.817Z,51.19
2019-03-26T06:22:09.434Z,52.31
2019-03-26T06:24:38.090Z,52.32
2019-03-26T06:27:06.709Z,51.46
2019-03-26T06:29:35.332Z,53.05
2019-03-26T06:32:03.981Z,52.39
2019-03-26T06:34:32.595Z,52.13
2019-03-26T06:37:01.222Z,50.82
2019-03-26T06:39:29.867Z,50.79
2019-03-26T06:41:58.486Z,53.49
2019-03-26T06:44:27.116Z,50.58
2019-03-26T06:46:55.782Z,51.45
2019-03-26T06:49:24.396Z,49.86
2019-03-26T06:51:53.022Z,50.83
2019-03-26T06:54:21.666Z,50.83
2019-03-26T06:56:50.326Z,50.07
2019-03-26T06:59:18.985Z,51.75
2019-03-26T07:01:47.733Z,51.87
2019-03-26T07:04:16.357Z,51.56
2019-03-26T07:06:45.052Z,51.58
2019-03-26T07:09:13.720Z,50.15
2019-03-26T07:11:42.353Z,50.15
2019-03-26T07:14:10.965Z,48.91
2019-03-26T07:16:39.649Z,50.49
2019-03-26T07:19:08.277Z,48.87
2019-03-26T07:21:49.150Z,50.24
2019-03-26T07:24:07.390Z,48.95
2019-03-26T07:26:36.015Z,48.14
2019-03-26T07:29:04.648Z,48.67
2019-03-26T07:31:33.312Z,47.66
2019-03-26T07:34:01.931Z,48.67
2019-03-26T07:36:30.557Z,48.67
2019-03-26T07:38:59.213Z,47.48
2019-03-26T07:41:27.827Z,47.94
2019-03-26T07:43:56.462Z,48.92
2019-03-26T07:46:25.110Z,48.11
2019-03-26T07:48:53.805Z,46.82
2019-03-26T07:51:22.430Z,47.46
2019-03-26T07:53:51.087Z,47.59
2019-03-26T07:56:19.706Z,46.31
2019-03-26T07:58:48.330Z,47.48
2019-03-26T08:01:17.007Z,46.98
2019-03-26T08:03:45.608Z,46.27
2019-03-26T08:06:14.235Z,45.91
2019-03-26T08:08:42.893Z,47.64
2019-03-26T08:11:11.523Z,47.31
2019-03-26T08:13:41.110Z,46.60
2019-03-26T08:16:09.776Z,47.18
2019-03-26T08:18:38.401Z,46.44
2019-03-26T08:21:07.014Z,46.55
2019-03-26T08:23:38.339Z,46.50
2019-03-26T08:26:06.028Z,45.55
2019-03-26T08:28:34.720Z,46.23
2019-03-26T08:31:03.396Z,45.86
2019-03-26T08:33:32.025Z,46.82
2019-03-26T08:36:00.662Z,47.02
2019-03-26T08:38:29.316Z,45.98
2019-03-26T08:40:57.940Z,46.58
2019-03-26T08:43:26.557Z,46.17
2019-03-26T08:45:55.216Z,45.32
2019-03-26T08:48:23.841Z,44.96
2019-03-26T08:50:52.532Z,45.88
2019-03-26T08:53:21.203Z,45.14
2019-03-26T08:55:49.858Z,45.14
2019-03-26T08:58:18.461Z,44.98
2019-03-26T09:00:47.124Z,45.29
2019-03-26T09:03:15.750Z,44.74
2019-03-26T09:05:44.379Z,44.30
2019-03-26T09:08:24.831Z,43.36
2019-03-26T09:10:51.777Z,44.00
2019-03-26T09:13:13.795Z,42.04
2019-03-26T09:15:42.477Z,42.04
2019-03-26T09:18:11.129Z,42.84
2019-03-26T09:20:39.807Z,44.21
2019-03-26T09:23:08.467Z,43.97
2019-03-26T09:25:37.115Z,44.07
2019-03-26T09:28:05.733Z,44.50
2019-03-26T09:30:34.393Z,44.58
2019-03-26T09:33:03.034Z,44.20
2019-03-26T09:35:31.683Z,44.05
2019-03-26T09:38:00.351Z,43.92
2019-03-26T09:40:28.991Z,43.88
2019-03-26T09:42:57.617Z,44.23
2019-03-26T09:45:26.301Z,44.47
2019-03-26T09:47:54.913Z,44.05
2019-03-26T09:50:36.294Z,42.87
2019-03-26T09:53:05.228Z,42.06
2019-03-26T09:55:33.853Z,42.28
2019-03-26T09:58:02.581Z,42.01
2019-03-26T10:00:31.326Z,41.13
2019-03-26T10:03:00.009Z,41.88
2019-03-26T10:05:28.668Z,42.14
2019-03-26T10:07:57.286Z,43.20
2019-03-26T10:10:25.920Z,43.64
2019-03-26T10:12:54.575Z,43.12
2019-03-26T10:15:23.202Z,43.63
2019-03-26T10:17:51.824Z,42.81
2019-03-26T10:20:20.491Z,44.73
2019-03-26T10:22:49.115Z,43.02
2019-03-26T10:25:17.737Z,42.72
2019-03-26T10:27:46.396Z,41.93
2019-03-26T10:30:17.927Z,41.89
2019-03-26T10:32:46.569Z,41.27
2019-03-26T10:35:15.226Z,41.88
2019-03-26T10:37:43.849Z,41.86
2019-03-26T10:40:15.384Z,42.40
2019-03-26T10:42:44.047Z,41.91
2019-03-26T10:45:12.876Z,40.93
2019-03-26T10:47:41.502Z,40.96
2019-03-26T10:50:10.262Z,41.89
2019-03-26T10:52:38.889Z,41.10
2019-03-26T10:55:07.612Z,40.25
2019-03-26T10:57:36.384Z,40.01
2019-03-26T11:00:08.030Z,40.95
2019-03-26T11:02:36.734Z,42.00
2019-03-26T11:05:06.807Z,41.01
2019-03-26T11:07:35.425Z,40.74
2019-03-26T11:10:07.445Z,40.70
2019-03-26T11:12:36.103Z,41.59
2019-03-26T11:15:11.590Z,41.08
2019-03-26T11:17:40.217Z,41.36
2019-03-26T11:20:09.361Z,43.17
2019-03-26T11:22:37.976Z,42.77
2019-03-26T11:25:08.504Z,41.65
2019-03-26T11:27:37.165Z,41.39
2019-03-26T11:30:07.203Z,42.49
2019-03-26T11:32:35.828Z,42.68
2019-03-26T11:35:06.395Z,43.74
2019-03-26T11:37:35.020Z,45.28
2019-03-26T11:40:04.145Z,46.97
2019-03-26T11:42:32.806Z,46.76
2019-03-26T11:45:01.437Z,46.51
2019-03-26T11:47:30.056Z,45.68
2019-03-26T11:49:58.718Z,44.92
2019-03-26T11:52:27.345Z,44.27
2019-03-26T11:54:55.972Z,44.48
2019-03-26T11:57:24.633Z,43.64
2019-03-26T11:59:53.263Z,42.60
2019-03-26T12:02:22.045Z,43.27
2019-03-26T12:04:50.811Z,43.44
2019-03-26T12:07:19.440Z,42.46
2019-03-26T12:09:48.076Z,42.91
2019-03-26T12:12:16.740Z,45.50
2019-03-26T12:14:45.370Z,47.15
2019-03-26T12:17:15.031Z,48.25
2019-03-26T12:19:43.841Z,49.07
2019-03-26T12:22:12.477Z,47.57
2019-03-26T12:24:41.103Z,48.60
2019-03-26T12:27:09.763Z,47.31
2019-03-26T12:29:38.395Z,48.67
2019-03-26T12:32:07.041Z,49.82
2019-03-26T12:34:35.701Z,47.31
2019-03-26T12:37:04.326Z,49.10
2019-03-26T12:39:32.956Z,51.14
2019-03-26T12:42:01.625Z,54.71
2019-03-26T12:44:30.305Z,51.79
2019-03-26T12:46:58.978Z,50.13
2019-03-26T12:49:27.651Z,50.51
2019-03-26T12:51:56.411Z,52.31
2019-03-26T12:54:25.060Z,53.71
2019-03-26T12:56:53.742Z,53.87
2019-03-26T12:59:22.369Z,51.22
2019-03-26T13:01:50.995Z,54.68
2019-03-26T13:04:19.647Z,52.04
2019-03-26T13:06:48.281Z,51.50
2019-03-26T13:09:16.916Z,51.13
2019-03-26T13:11:45.646Z,48.74
2019-03-26T13:14:14.271Z,48.65
2019-03-26T13:16:42.912Z,48.17
2019-03-26T13:19:11.574Z,49.44
2019-03-26T13:21:40.203Z,47.91
2019-03-26T13:24:11.290Z,45.86
2019-03-26T13:26:39.258Z,46.19
2019-03-26T13:29:07.884Z,45.80
2019-03-26T13:31:36.526Z,43.92
2019-03-26T13:34:05.197Z,44.20
2019-03-26T13:36:33.827Z,43.14
2019-03-26T13:39:02.447Z,41.43
2019-03-26T13:41:31.114Z,44.72
2019-03-26T13:43:59.747Z,45.13
2019-03-26T13:46:28.378Z,44.88
2019-03-26T13:48:57.958Z,44.87
2019-03-26T13:51:26.592Z,44.13
2019-03-26T13:53:55.221Z,41.91
2019-03-26T13:56:23.885Z,42.31
2019-03-26T13:58:52.510Z,42.76
2019-03-26T14:01:21.144Z,43.76
2019-03-26T14:03:50.006Z,42.58
2019-03-26T14:06:18.649Z,40.49
2019-03-26T14:08:47.285Z,41.05
2019-03-26T14:11:15.958Z,39.18
2019-03-26T14:13:44.584Z,39.43
2019-03-26T14:16:13.203Z,40.43
2019-03-26T14:18:41.879Z,38.23
2019-03-26T14:21:10.598Z,38.70
2019-03-26T14:23:39.225Z,40.39
2019-03-26T14:26:07.890Z,40.34
2019-03-26T14:28:36.547Z,39.39
2019-03-26T14:31:05.215Z,37.12
2019-03-26T14:33:33.884Z,36.62
2019-03-26T14:36:03.093Z,37.29
2019-03-26T14:38:31.722Z,37.41
2019-03-26T14:41:00.392Z,39.83
2019-03-26T14:43:29.094Z,39.04
2019-03-26T14:45:57.753Z,37.52
2019-03-26T14:48:26.415Z,38.27
2019-03-26T14:50:55.034Z,38.73
2019-03-26T14:53:23.657Z,36.76
2019-03-26T14:55:52.394Z,39.09
2019-03-26T14:58:21.036Z,38.70
2019-03-26T15:00:49.670Z,39.49
2019-03-26T15:03:18.355Z,40.18
2019-03-26T15:05:46.972Z,38.58
2019-03-26T15:08:15.604Z,38.21
2019-03-26T15:10:44.279Z,38.87
2019-03-26T15:13:12.907Z,39.36
2019-03-26T15:15:41.534Z,38.81
2019-03-26T15:18:10.207Z,39.03
2019-03-26T15:20:38.828Z,38.81
2019-03-26T15:23:07.453Z,38.71
2019-03-26T15:25:36.106Z,38.68
2019-03-26T15:28:04.730Z,38.70
2019-03-26T15:30:33.355Z,38.88
2019-03-26T15:33:02.095Z,44.91
2019-03-26T15:35:30.714Z,48.03
2019-03-26T15:37:59.350Z,49.83
2019-03-26T15:40:28.074Z,49.29
2019-03-26T15:42:56.701Z,46.47
2019-03-26T15:45:25.338Z,45.50
2019-03-26T15:47:54.016Z,46.15
2019-03-26T15:50:36.743Z,45.28
2019-03-26T15:53:05.496Z,44.71
2019-03-26T15:55:34.127Z,43.06
2019-03-26T15:58:02.759Z,41.84
2019-03-26T16:00:31.422Z,40.75
2019-03-26T16:03:00.060Z,39.54
2019-03-26T16:05:28.689Z,38.01
2019-03-26T16:08:00.421Z,38.21
2019-03-26T16:10:27.776Z,38.70
2019-03-26T16:12:56.400Z,38.45
2019-03-26T16:15:25.055Z,37.20
2019-03-26T16:17:53.676Z,37.40
2019-03-26T16:20:22.306Z,37.36
2019-03-26T16:22:50.962Z,36.72
2019-03-26T16:25:19.590Z,36.64
2019-03-26T16:27:48.208Z,35.86
2019-03-26T16:30:17.968Z,35.16
2019-03-26T16:32:46.663Z,36.06
2019-03-26T16:35:15.297Z,36.71
2019-03-26T16:37:43.945Z,36.04
2019-03-26T16:40:12.572Z,37.11
2019-03-26T16:42:41.207Z,37.53
2019-03-26T16:45:09.868Z,38.41
2019-03-26T16:47:38.487Z,38.76
2019-03-26T16:50:08.521Z,38.10
2019-03-26T16:52:37.185Z,38.15
2019-03-26T16:55:06.806Z,37.49
2019-03-26T16:57:35.429Z,37.39
2019-03-26T17:00:05.321Z,37.65
2019-03-26T17:02:33.947Z,38.04
2019-03-26T17:05:02.577Z,37.56
2019-03-26T17:07:31.228Z,38.05
2019-03-26T17:09:59.858Z,37.77
2019-03-26T17:12:28.482Z,36.82
2019-03-26T17:14:57.144Z,37.90
2019-03-26T17:17:25.773Z,37.33
2019-03-26T17:19:57.402Z,37.20
2019-03-26T17:22:26.629Z,36.76
2019-03-26T17:24:55.261Z,36.81
2019-03-26T17:27:23.895Z,37.34
2019-03-26T17:29:52.635Z,37.26
2019-03-26T17:32:21.273Z,37.21
2019-03-26T17:34:49.915Z,37.23
2019-03-26T17:37:18.591Z,36.81
2019-03-26T17:39:47.293Z,36.19
2019-03-26T17:42:17.419Z,35.47
2019-03-26T17:44:46.365Z,36.74
2019-03-26T17:47:14.989Z,35.58
2019-03-26T17:49:43.634Z,36.57
2019-03-26T17:52:12.301Z,37.24
2019-03-26T17:54:40.935Z,36.15
2019-03-26T17:57:09.566Z,36.24
2019-03-26T17:59:38.230Z,36.15
2019-03-26T18:02:06.935Z,36.66
2019-03-26T18:04:35.767Z,35.92
2019-03-26T18:07:05.643Z,34.85
2019-03-26T18:09:34.352Z,34.37
2019-03-26T18:12:02.981Z,34.46
2019-03-26T18:14:31.651Z,34.83
2019-03-26T18:17:00.355Z,34.17
2019-03-26T18:19:29.060Z,33.46
2019-03-26T18:21:57.733Z,34.23
2019-03-26T18:24:26.370Z,34.36
2019-03-26T18:26:57.996Z,34.24
2019-03-26T18:29:26.677Z,34.08
2019-03-26T18:31:55.305Z,34.55
2019-03-26T18:34:24.019Z,34.25
2019-03-26T18:36:52.714Z,33.61
2019-03-26T18:39:21.403Z,34.03
2019-03-26T18:41:50.032Z,34.27
2019-03-26T18:44:19.663Z,33.71
2019-03-26T18:46:48.311Z,34.54
2019-03-26T18:49:16.917Z,34.29
2019-03-26T18:51:45.590Z,33.87
2019-03-26T18:54:14.223Z,33.70
2019-03-26T18:56:42.921Z,33.34
2019-03-26T18:59:11.598Z,33.57
2019-03-26T19:01:40.226Z,33.95
2019-03-26T19:04:08.855Z,34.61
2019-03-26T19:06:37.590Z,33.64
2019-03-26T19:09:06.593Z,34.36
2019-03-26T19:11:35.230Z,34.38
2019-03-26T19:14:04.027Z,35.42
2019-03-26T19:16:32.735Z,36.18
2019-03-26T19:19:01.364Z,35.06
2019-03-26T19:21:30.032Z,34.52
2019-03-26T19:24:04.633Z,34.36
2019-03-26T19:26:29.087Z,34.90
2019-03-26T19:28:57.827Z,35.14
2019-03-26T19:31:26.530Z,36.40
2019-03-26T19:33:55.153Z,37.38
2019-03-26T19:36:23.837Z,36.40
2019-03-26T19:38:52.476Z,35.94
2019-03-26T19:41:21.121Z,35.18
2019-03-26T19:43:49.808Z,34.39
2019-03-26T19:46:18.517Z,34.62
2019-03-26T19:48:47.153Z,36.23
2019-03-26T19:51:15.822Z,34.61
2019-03-26T19:53:44.553Z,33.43
2019-03-26T19:56:13.172Z,34.60
2019-03-26T19:58:41.831Z,34.01
2019-03-26T20:01:10.467Z,35.14
2019-03-26T20:03:39.161Z,33.91
2019-03-26T20:06:13.547Z,34.06
2019-03-26T20:08:38.331Z,34.45
2019-03-26T20:11:06.964Z,34.35
2019-03-26T20:13:35.712Z,35.33
2019-03-26T20:16:04.338Z,34.06
2019-03-26T20:18:32.957Z,34.99
2019-03-26T20:21:01.697Z,35.23
2019-03-26T20:23:30.325Z,35.23
2019-03-26T20:25:58.952Z,35.50
2019-03-26T20:28:27.633Z,35.30
2019-03-26T20:30:56.259Z,36.16
2019-03-26T20:33:24.878Z,35.70
2019-03-26T20:35:53.614Z,35.65
2019-03-26T20:38:23.886Z,34.38
2019-03-26T20:40:52.575Z,35.58
2019-03-26T20:43:21.266Z,34.72
2019-03-26T20:45:49.894Z,34.78
2019-03-26T20:48:18.596Z,35.20
2019-03-26T20:50:47.264Z,34.76
2019-03-26T20:53:15.893Z,34.88
2019-03-26T20:55:54.150Z,33.79
2019-03-26T20:58:14.912Z,33.27
2019-03-26T21:00:43.715Z,33.65
2019-03-26T21:03:12.337Z,33.53
2019-03-26T21:05:41.003Z,33.77
2019-03-26T21:08:09.634Z,34.38
2019-03-26T21:10:38.382Z,33.54
2019-03-26T21:13:07.076Z,33.54
2019-03-26T21:15:35.689Z,32.76
2019-03-26T21:18:04.421Z,33.10
2019-03-26T21:20:33.077Z,32.65
2019-03-26T21:23:01.702Z,33.68
2019-03-26T21:25:30.396Z,33.24
2019-03-26T21:27:59.055Z,33.24
2019-03-26T21:30:27.674Z,33.79
2019-03-26T21:32:56.365Z,34.22
2019-03-26T21:35:28.579Z,34.33
2019-03-26T21:37:55.455Z,34.33
2019-03-26T21:40:24.082Z,34.72
2019-03-26T21:42:52.786Z,35.31
2019-03-26T21:45:35.287Z,34.48
2019-03-26T21:48:05.443Z,34.18
2019-03-26T21:50:34.168Z,34.70
2019-03-26T21:53:02.785Z,35.79
2019-03-26T21:55:31.432Z,35.90
2019-03-26T21:58:00.056Z,35.69
2019-03-26T22:00:28.754Z,35.95
2019-03-26T22:02:57.415Z,36.02
2019-03-26T22:05:26.042Z,34.80
2019-03-26T22:07:54.668Z,34.94
2019-03-26T22:10:23.309Z,35.24
2019-03-26T22:12:51.950Z,33.60
2019-03-26T22:15:20.574Z,34.65
2019-03-26T22:17:49.232Z,34.00
2019-03-26T22:20:17.859Z,34.50
2019-03-26T22:22:46.528Z,35.84
2019-03-26T22:25:15.916Z,34.95
2019-03-26T22:27:44.529Z,35.44
2019-03-26T22:30:14.895Z,36.38
2019-03-26T22:32:43.561Z,36.37
2019-03-26T22:35:12.277Z,35.34
2019-03-26T22:37:40.897Z,35.73
2019-03-26T22:40:10.549Z,35.90
2019-03-26T22:42:39.178Z,35.84
2019-03-26T22:45:09.600Z,35.43
2019-03-26T22:47:40.960Z,35.04
2019-03-26T22:50:10.680Z,34.91
2019-03-26T22:52:39.376Z,36.15
2019-03-26T22:55:09.524Z,36.15
2019-03-26T22:57:38.643Z,36.36
2019-03-26T23:00:20.802Z,35.21
2019-03-26T23:02:49.424Z,35.28
2019-03-26T23:05:18.617Z,35.73
2019-03-26T23:07:47.260Z,36.41
2019-03-26T23:10:17.541Z,37.07
2019-03-26T23:12:46.332Z,36.53
2019-03-26T23:15:24.123Z,35.32
2019-03-26T23:17:52.855Z,35.02
2019-03-26T23:20:21.484Z,36.48
2019-03-26T23:22:50.132Z,35.78
2019-03-26T23:25:18.747Z,36.04
2019-03-26T23:27:47.362Z,37.12
2019-03-26T23:30:16.516Z,37.04
2019-03-26T23:32:45.149Z,36.22
2019-03-26T23:35:13.857Z,36.29
2019-03-26T23:37:42.712Z,35.45
2019-03-26T23:40:12.528Z,35.71
2019-03-26T23:42:41.164Z,35.16
2019-03-26T23:45:11.027Z,36.20
2019-03-26T23:47:39.649Z,36.48
2019-03-26T23:50:09.671Z,36.39
2019-03-26T23:52:38.312Z,36.48
2019-03-26T23:55:08.432Z,36.50
2019-03-26T23:57:37.674Z,36.31
